NCAR-RAP Real-Time Weather Data

Output produced by METARs form (28 June 2017  12:07 UTC)
found at http://weather.rap.ucar.edu/surface/
 
Conditions at: KBKV observed 28 June 2017  11:53 UTC
Temperature: 23.3°C (74°F)
Dewpoint: 22.2°C (72°F) [RH = 94%]
Pressure (altimeter): 30.06 inches Hg (1018.0 mb)
[Sea-level pressure: 1017.6 mb]
Winds: from the ENE (70 degrees) at 5 MPH (4 knots; 2.1 m/s)
Visibility: 10 or more miles (16+ km)
Ceiling: at least 12,000 feet AGL
Clouds: sky clear below 12,000 feet AGL
Present Weather: no significant weather observed at this time
KBKV 281153Z 07004KT 10SM CLR 23/22 A3006 RMK AO2 SLP176 T02330222 10233 20206 53016

Conditions at: KBKV observed 28 June 2017  10:53 UTC
Temperature: 22.2°C (72°F)
Dewpoint: 21.1°C (70°F) [RH = 93%]
Pressure (altimeter): 30.04 inches Hg (1017.4 mb)
[Sea-level pressure: 1016.9 mb]
Winds: from the NNE (20 degrees) at 3 MPH (3 knots; 1.6 m/s)
Visibility: 10 or more miles (16+ km)
Ceiling: at least 12,000 feet AGL
Clouds: sky clear below 12,000 feet AGL
Present Weather: no significant weather observed at this time
KBKV 281053Z 02003KT 10SM CLR 22/21 A3004 RMK AO2 SLP169 T02220211

Conditions at: KBKV observed 28 June 2017  09:53 UTC
Temperature: 21.1°C (70°F)
Dewpoint: 20.6°C (69°F) [RH = 97%]
Pressure (altimeter): 30.02 inches Hg (1016.7 mb)
[Sea-level pressure: 1016.5 mb]
Winds: calm
Visibility: 10 or more miles (16+ km)
Ceiling: at least 12,000 feet AGL
Clouds: sky clear below 12,000 feet AGL
Present Weather: automated observation with no human augmentation;
there may or may not be significant weather present at this time
KBKV 280953Z AUTO 00000KT 10SM CLR 21/21 A3002 RMK AO2 SLP165 T02110206

Conditions at: KBKV observed 28 June 2017  09:27 UTC
Temperature: 21.1°C (70°F)
Dewpoint: 20.6°C (69°F) [RH = 97%]
Pressure (altimeter): 30.02 inches Hg (1016.7 mb)
Winds: calm
Visibility: 3 miles (5 km)
Ceiling: at least 12,000 feet AGL
Clouds: sky clear below 12,000 feet AGL
Present Weather: BR  (mist)
KBKV 280927Z AUTO 00000KT 3SM BR CLR 21/21 A3002 RMK AO2 T02110206

Conditions at: KBKV observed 28 June 2017  09:08 UTC
Temperature: 21.1°C (70°F)
Dewpoint: 20.6°C (69°F) [RH = 97%]
Pressure (altimeter): 30.01 inches Hg (1016.3 mb)
Winds: calm
Visibility: 1.75 miles (2.82 km)
Ceiling: at least 12,000 feet AGL
Clouds: sky clear below 12,000 feet AGL
Present Weather: BR  (mist)
KBKV 280908Z AUTO 00000KT 1 3/4SM BR CLR 21/21 A3001 RMK AO2 VIS 3/4V5 T02110206

Conditions at: KBKV observed 28 June 2017  08:53 UTC
Temperature: 21.1°C (70°F)
Dewpoint: 20.6°C (69°F) [RH = 97%]
Pressure (altimeter): 30.01 inches Hg (1016.3 mb)
[Sea-level pressure: 1016.1 mb]
Winds: calm
Visibility: 10 or more miles (16+ km)
Ceiling: at least 12,000 feet AGL
Clouds: sky clear below 12,000 feet AGL
Present Weather: automated observation with no human augmentation;
there may or may not be significant weather present at this time
KBKV 280853Z AUTO 00000KT 10SM CLR 21/21 A3001 RMK AO2 SLP161 T02110206 55002

Conditions at: KBKV observed 28 June 2017  07:53 UTC
Temperature: 21.7°C (71°F)
Dewpoint: 21.1°C (70°F) [RH = 96%]
Pressure (altimeter): 30.01 inches Hg (1016.3 mb)
[Sea-level pressure: 1015.9 mb]
Winds: calm
Visibility: 10 or more miles (16+ km)
Ceiling: at least 12,000 feet AGL
Clouds: sky clear below 12,000 feet AGL
Present Weather: automated observation with no human augmentation;
there may or may not be significant weather present at this time
KBKV 280753Z AUTO 00000KT 10SM CLR 22/21 A3001 RMK AO2 SLP159 T02170211

Conditions at: KBKV observed 28 June 2017  06:53 UTC
Temperature: 22.2°C (72°F)
Dewpoint: 21.1°C (70°F) [RH = 93%]
Pressure (altimeter): 30.01 inches Hg (1016.3 mb)
[Sea-level pressure: 1015.8 mb]
Winds: from the ESE (110 degrees) at 3 MPH (3 knots; 1.6 m/s)
Visibility: 10 or more miles (16+ km)
Ceiling: at least 12,000 feet AGL
Clouds: sky clear below 12,000 feet AGL
Present Weather: automated observation with no human augmentation;
there may or may not be significant weather present at this time
KBKV 280653Z AUTO 11003KT 10SM CLR 22/21 A3001 RMK AO2 SLP158 T02220211

Conditions at: KBKV observed 28 June 2017  05:53 UTC
Temperature: 22.8°C (73°F)
Dewpoint: 21.7°C (71°F) [RH = 94%]
Pressure (altimeter): 30.02 inches Hg (1016.7 mb)
[Sea-level pressure: 1016.2 mb]
Winds: from the SE (140 degrees) at 3 MPH (3 knots; 1.6 m/s)
Visibility: 10 or more miles (16+ km)
Ceiling: at least 12,000 feet AGL
Clouds: sky clear below 12,000 feet AGL
Present Weather: automated observation with no human augmentation;
there may or may not be significant weather present at this time
KBKV 280553Z AUTO 14003KT 10SM CLR 23/22 A3002 RMK AO2 SLP162 T02280217 10294 20228 58009

Conditions at: KBKV observed 28 June 2017  04:53 UTC
Temperature: 23.3°C (74°F)
Dewpoint: 22.2°C (72°F) [RH = 94%]
Pressure (altimeter): 30.03 inches Hg (1017.0 mb)
[Sea-level pressure: 1016.6 mb]
Winds: from the E (100 degrees) at 5 MPH (4 knots; 2.1 m/s)
Visibility: 10 or more miles (16+ km)
Ceiling: at least 12,000 feet AGL
Clouds: sky clear below 12,000 feet AGL
Present Weather: automated observation with no human augmentation;
there may or may not be significant weather present at this time
KBKV 280453Z AUTO 10004KT 10SM CLR 23/22 A3003 RMK AO2 SLP166 T02330222 403390217

Conditions at: KBKV observed 28 June 2017  03:53 UTC
Temperature: 23.9°C (75°F)
Dewpoint: 22.2°C (72°F) [RH = 90%]
Pressure (altimeter): 30.04 inches Hg (1017.4 mb)
[Sea-level pressure: 1017.1 mb]
Winds: from the E (90 degrees) at 5 MPH (4 knots; 2.1 m/s)
Visibility: 10 or more miles (16+ km)
Ceiling: at least 12,000 feet AGL
Clouds: sky clear below 12,000 feet AGL
Present Weather: automated observation with no human augmentation;
there may or may not be significant weather present at this time
KBKV 280353Z AUTO 09004KT 10SM CLR 24/22 A3004 RMK AO2 SLP171 T02390222

Conditions at: KBKV observed 28 June 2017  02:53 UTC
Temperature: 24.4°C (76°F)
Dewpoint: 22.2°C (72°F) [RH = 88%]
Pressure (altimeter): 30.04 inches Hg (1017.4 mb)
[Sea-level pressure: 1017.1 mb]
Winds: from the ESE (120 degrees) at 5 MPH (4 knots; 2.1 m/s)
Visibility: 10 or more miles (16+ km)
Ceiling: at least 12,000 feet AGL
Clouds: sky clear below 12,000 feet AGL
Present Weather: automated observation with no human augmentation;
there may or may not be significant weather present at this time
KBKV 280253Z AUTO 12004KT 10SM CLR 24/22 A3004 RMK AO2 SLP171 T02440222 53016

Conditions at: KBKV observed 28 June 2017  01:53 UTC
Temperature: 25.0°C (77°F)
Dewpoint: 22.8°C (73°F) [RH = 88%]
Pressure (altimeter): 30.03 inches Hg (1017.0 mb)
[Sea-level pressure: 1016.7 mb]
Winds: from the ESE (110 degrees) at 6 MPH (5 knots; 2.6 m/s)
Visibility: 10 or more miles (16+ km)
Ceiling: 8500 feet AGL
Clouds: broken clouds at 8500 feet AGL
Present Weather: no significant weather observed at this time
KBKV 280153Z 11005KT 10SM BKN085 25/23 A3003 RMK AO2 SLP167 T02500228

Conditions at: KBKV observed 28 June 2017  00:53 UTC
Temperature: 26.7°C (80°F)
Dewpoint: 22.2°C (72°F) [RH = 76%]
Pressure (altimeter): 30.00 inches Hg (1016.0 mb)
[Sea-level pressure: 1015.8 mb]
Winds: from the E (100 degrees) at 9 MPH (8 knots; 4.2 m/s)
Visibility: 10 or more miles (16+ km)
Ceiling: 3300 feet AGL
Clouds: broken clouds at 3300 feet AGL
overcast cloud deck at 5500 feet AGL
Present Weather: no significant weather observed at this time
KBKV 280053Z 10008KT 10SM BKN033 OVC055 27/22 A3000 RMK AO2 LTG DSNT NE SLP158 T02670222

Conditions at: KBKV observed 27 June 2017  23:53 UTC
Temperature: 30.0°C (86°F)
Dewpoint: 22.2°C (72°F) [RH = 63%]
Pressure (altimeter): 30.00 inches Hg (1016.0 mb)
[Sea-level pressure: 1015.5 mb]
Winds: from the NW (320 degrees) at 6 MPH (5 knots; 2.6 m/s)
Visibility: 10 or more miles (16+ km)
Ceiling: at least 12,000 feet AGL
Clouds: scattered clouds at 11000 feet AGL
Present Weather: no significant weather observed at this time
KBKV 272353Z 32005KT 10SM SCT110 30/22 A3000 RMK AO2 SLP155 T03000222 10339 20294 53015

Conditions at: KBKV observed 27 June 2017  22:53 UTC
Temperature: 30.6°C (87°F)
Dewpoint: 21.7°C (71°F) [RH = 59%]
Pressure (altimeter): 29.97 inches Hg (1015.0 mb)
[Sea-level pressure: 1014.7 mb]
Winds: from the WNW (300 degrees) at 12 MPH (10 knots; 5.2 m/s)
Visibility: 10 or more miles (16+ km)
Ceiling: at least 12,000 feet AGL
Clouds: few clouds at 11000 feet AGL
Present Weather: no significant weather observed at this time
KBKV 272253Z 30010KT 10SM FEW110 31/22 A2997 RMK AO2 SLP147 T03060217

Conditions at: KBKV observed 27 June 2017  21:53 UTC
Temperature: 31.7°C (89°F)
Dewpoint: 21.7°C (71°F) [RH = 56%]
Pressure (altimeter): 29.96 inches Hg (1014.6 mb)
[Sea-level pressure: 1014.3 mb]
Winds: from the WNW (290 degrees) at 14 MPH (12 knots; 6.2 m/s)
Visibility: 10 or more miles (16+ km)
Ceiling: 11000 feet AGL
Clouds: broken clouds at 11000 feet AGL
Present Weather: no significant weather observed at this time
KBKV 272153Z 29012KT 10SM BKN110 32/22 A2996 RMK AO2 LTG DSNT N-E SLP143 T03170217

Conditions at: KBKV observed 27 June 2017  20:53 UTC
Temperature: 32.2°C (90°F)
Dewpoint: 22.2°C (72°F) [RH = 56%]
Pressure (altimeter): 29.95 inches Hg (1014.3 mb)
[Sea-level pressure: 1014.0 mb]
Winds: from the WNW (290 degrees) at 12 MPH (10 knots; 5.2 m/s)
Visibility: 10 or more miles (16+ km)
Ceiling: at least 12,000 feet AGL
Clouds: few clouds at 4000 feet AGL
Present Weather: no significant weather observed at this time
KBKV 272053Z 29010KT 10SM FEW040 32/22 A2995 RMK AO2 LTG DSNT N-E SLP140 T03220222 58016

Conditions at: KBKV observed 27 June 2017  19:53 UTC
Temperature: 33.9°C (93°F)
Dewpoint: 21.7°C (71°F) [RH = 49%]
Pressure (altimeter): 29.97 inches Hg (1015.0 mb)
[Sea-level pressure: 1014.8 mb]
Winds: from the W (280 degrees) at 10 MPH (9 knots; 4.7 m/s)
Visibility: 10 or more miles (16+ km)
Ceiling: at least 12,000 feet AGL
Clouds: few clouds at 4600 feet AGL
Present Weather: no significant weather observed at this time
KBKV 271953Z 28009KT 10SM FEW046 34/22 A2997 RMK AO2 LTG DSNT N SLP148 T03390217

Conditions at: KBKV observed 27 June 2017  18:53 UTC
Temperature: 33.3°C (92°F)
Dewpoint: 21.1°C (70°F) [RH = 49%]
Pressure (altimeter): 29.98 inches Hg (1015.3 mb)
[Sea-level pressure: 1014.9 mb]
Winds: from the WNW (290 degrees) at 10 MPH (9 knots; 4.7 m/s)
Visibility: 10 or more miles (16+ km)
Ceiling: at least 12,000 feet AGL
Clouds: sky clear below 12,000 feet AGL
Present Weather: no significant weather observed at this time
KBKV 271853Z 29009KT 10SM CLR 33/21 A2998 RMK AO2 SLP149 T03330211

Conditions at: KBKV observed 27 June 2017  17:53 UTC
Temperature: 32.2°C (90°F)
Dewpoint: 22.2°C (72°F) [RH = 56%]
Pressure (altimeter): 30.00 inches Hg (1016.0 mb)
[Sea-level pressure: 1015.5 mb]
Winds: from the WNW (300 degrees) at 13 MPH (11 knots; 5.7 m/s)
gusting to 17 MPH (15 knots; 7.8 m/s)
Visibility: 10 or more miles (16+ km)
Ceiling: at least 12,000 feet AGL
Clouds: few clouds at 3800 feet AGL
few clouds at 4500 feet AGL
Present Weather: no significant weather observed at this time
KBKV 271753Z 30011G15KT 10SM FEW038 FEW045 32/22 A3000 RMK AO2 SLP155 T03220222 10333 20244 58013

Conditions at: KBKV observed 27 June 2017  16:53 UTC
Temperature: 32.8°C (91°F)
Dewpoint: 22.8°C (73°F) [RH = 56%]
Pressure (altimeter): 30.01 inches Hg (1016.3 mb)
[Sea-level pressure: 1016.1 mb]
Winds: from the W (260 degrees) at 9 MPH (8 knots; 4.2 m/s)
Visibility: 10 or more miles (16+ km)
Ceiling: at least 12,000 feet AGL
Clouds: few clouds at 3700 feet AGL
few clouds at 5500 feet AGL
Present Weather: no significant weather observed at this time
KBKV 271653Z 26008KT 10SM FEW037 FEW055 33/23 A3001 RMK AO2 SLP161 T03280228

Conditions at: KBKV observed 27 June 2017  15:53 UTC
Temperature: 31.7°C (89°F)
Dewpoint: 22.8°C (73°F) [RH = 59%]
Pressure (altimeter): 30.02 inches Hg (1016.7 mb)
[Sea-level pressure: 1016.4 mb]
Winds: from the WNW (290 degrees) at 12 MPH (10 knots; 5.2 m/s)
Visibility: 10 or more miles (16+ km)
Ceiling: 5500 feet AGL
Clouds: scattered clouds at 3700 feet AGL
scattered clouds at 4500 feet AGL
broken clouds at 5500 feet AGL
Present Weather: no significant weather observed at this time
KBKV 271553Z 29010KT 10SM SCT037 SCT045 BKN055 32/23 A3002 RMK AO2 SLP164 T03170228

Conditions at: KBKV observed 27 June 2017  14:53 UTC
Temperature: 31.1°C (88°F)
Dewpoint: 23.3°C (74°F) [RH = 63%]
Pressure (altimeter): 30.03 inches Hg (1017.0 mb)
[Sea-level pressure: 1016.8 mb]
Winds: from the WNW (300 degrees) at 8 MPH (7 knots; 3.6 m/s)
Visibility: 10 or more miles (16+ km)
Ceiling: at least 12,000 feet AGL
Clouds: sky clear below 12,000 feet AGL
Present Weather: no significant weather observed at this time
KBKV 271453Z 30007KT 250V320 10SM CLR 31/23 A3003 RMK AO2 SLP168 T03110233 50005

Conditions at: KBKV observed 27 June 2017  13:53 UTC
Temperature: 27.8°C (82°F)
Dewpoint: 22.8°C (73°F) [RH = 74%]
Pressure (altimeter): 30.04 inches Hg (1017.4 mb)
[Sea-level pressure: 1017.0 mb]
Winds: from the W (280 degrees) at 5 MPH (4 knots; 2.1 m/s)
Visibility: 10 or more miles (16+ km)
Ceiling: at least 12,000 feet AGL
Clouds: sky clear below 12,000 feet AGL
Present Weather: no significant weather observed at this time
KBKV 271353Z 28004KT 10SM CLR 28/23 A3004 RMK AO2 SLP170 T02780228

Conditions at: KBKV observed 27 June 2017  12:53 UTC
Temperature: 27.8°C (82°F)
Dewpoint: 23.9°C (75°F) [RH = 79%]
Pressure (altimeter): 30.04 inches Hg (1017.4 mb)
[Sea-level pressure: 1017.1 mb]
Winds: from the W (260 degrees) at 6 MPH (5 knots; 2.6 m/s)
Visibility: 10 or more miles (16+ km)
Ceiling: at least 12,000 feet AGL
Clouds: sky clear below 12,000 feet AGL
Present Weather: no significant weather observed at this time
KBKV 271253Z 26005KT 10SM CLR 28/24 A3004 RMK AO2 LTG DSNT N AND NW SLP171 T02780239